Gulkana, AK

4:41 AM AKDT on September 04, 2015 (GMT -0800)
Gulkana | | Change Station
CLOSE
Current Station
Airport
Location: Gulkana,
Elevation: 1578 ft
Nearby Weather Stations

Elev 1578 ft 62.16 °N, 145.46 °W | Updated 48 minutes ago

Light Rain
Light Rain
44 °F
Feels Like 40 °F
N
7
Wind Variable Wind from SSE

Today
High -- | Low -- °F
--% Chance of Precip.
Yesterday
High -- | Low -- °F
Precip. -- in
6:38 AM 8:41 PM
Waning Gibbous, 60% visible
Pressure 29.90 in
Visibility 10.0 miles
Clouds Few 4300 ft
Overcast 6500 ft
Windchill 40 °F
Dew Point 42 °F
Humidity 93%
Rainfall 0.02 in
Snow Depth Not available.
UV 0 out of 12
Pollen Not available.
Air Quality Not available.
Flu Activity Not available.
METAR PAGK 041153Z AUTO 16006KT 10SM -RA FEW043 OVC065 07/06 A2987 RMK AO2 SLP123 P0002 60004 70009 T00670056 10078 20067 58010 TSNO
Pressure 29.90 in
Visibility 10.0 miles
Clouds Few 4300 ft
Overcast 6500 ft
Windchill 40 °F
Dew Point 42 °F
Humidity 93%
Rainfall 0.02 in
Snow Depth Not available.
UV 0 out of 12
Pollen Not available.
Air Quality Not available.
Flu Activity Not available.
METAR PAGK 041153Z AUTO 16006KT 10SM -RA FEW043 OVC065 07/06 A2987 RMK AO2 SLP123 P0002 60004 70009 T00670056 10078 20067 58010 TSNO

10-Day Weather Forecast

×

Almanac

Astronomy

Sep. 04, 2015 Rise Set
Actual Time
Civil Twilight
Nautical Twilight
Astronomical Twilight
Moon
Length of Visible Light
Length of Day
Tomorrow will be .
, % of the Moon is Illuminated

Today's Extremes

State Highs State Lows

Community

WunderPhotos

Upload Photos

1,852,174 photos uploaded!

WunderBlogs® & News

Nearby

Air Quality

  Air Quality AQ Index Pollutant
Not available.

Snow Depth

Station Depth Elevation

Earthquake Activity

City Distance Mag. Time & Date
Minimum magnitude displayed is 2.5.

Coastal Water Temperatures

Place Temperature

Stations

Nearby Weather Stations

Station Location Temp. Windchill Dew Point Humidity Wind Precip. Elev Updated Type